Time;durP1;ratioP1;P1;durP2;ratioP2;P2;SDS_P1;SDS_P2;PMS_P1;PMS_P2;Temp;Humidity;BMP_temperature;BMP_pressure;BME280_temperature;BME280_humidity;BME280_pressure;Samples;Min_cycle;Max_cycle;Signal;HPM_P1;HPM_P2
2022/01/28 00:02:31;;;;;;;8.75;6.15;;;-6.30;96.70;;;;;;4996320;28;20033;-78
2022/01/28 00:04:56;;;;;;;8.73;4.13;;;-6.30;96.60;;;;;;4998688;28;20403;-76
2022/01/28 00:07:22;;;;;;;13.00;5.65;;;-6.30;96.50;;;;;;4996582;28;20023;-81
2022/01/28 00:09:47;;;;;;;9.45;5.88;;;-6.30;96.60;;;;;;4996518;28;20030;-84
2022/01/28 00:12:14;;;;;;;12.23;6.50;;;-6.40;96.40;;;;;;5011994;28;20030;-78
2022/01/28 00:14:55;;;;;;;10.98;4.18;;;-6.40;96.40;;;;;;4996199;28;20387;-76
2022/01/28 00:38:50;;;;;;;8.65;5.05;;;-6.60;96.00;;;;;;5019270;28;20088;-78
2022/01/28 00:41:16;;;;;;;10.20;5.32;;;-6.60;96.10;;;;;;5017160;28;20049;-79
2022/01/28 00:43:42;;;;;;;9.90;5.82;;;-6.60;96.30;;;;;;5001888;28;20440;-79
2022/01/28 00:46:08;;;;;;;8.15;5.72;;;-6.60;96.40;;;;;;5021125;28;20129;-79
2022/01/28 00:48:34;;;;;;;11.60;5.82;;;-6.60;96.70;;;;;;5018124;28;20407;-81
2022/01/28 00:51:00;;;;;;;8.38;4.20;;;-6.60;96.80;;;;;;5022971;28;20467;-81
2022/01/28 00:53:26;;;;;;;7.65;6.30;;;-6.60;96.90;;;;;;5015310;28;20072;-80
2022/01/28 00:55:54;;;;;;;7.20;4.93;;;-6.60;96.80;;;;;;5020569;28;20528;-80
2022/01/28 00:58:20;;;;;;;9.80;5.80;;;-6.60;96.90;;;;;;5017231;28;20021;-81
2022/01/28 01:00:46;;;;;;;11.03;5.60;;;-6.60;97.10;;;;;;5015923;28;20180;-82
2022/01/28 01:03:12;;;;;;;5.82;3.30;;;-6.60;97.20;;;;;;5034516;28;20741;-83
2022/01/28 01:05:38;;;;;;;7.43;4.18;;;-6.60;97.20;;;;;;5035059;28;20390;-85
2022/01/28 01:08:05;;;;;;;5.30;3.47;;;-6.50;97.20;;;;;;5025011;28;20088;-78
2022/01/28 01:10:33;;;;;;;10.90;4.70;;;-6.60;97.00;;;;;;5015101;28;20125;-79
2022/01/28 01:12:59;;;;;;;8.10;5.03;;;-6.60;97.00;;;;;;5014909;28;20022;-79
2022/01/28 01:15:30;;;;;;;9.47;6.10;;;-6.60;96.90;;;;;;5014990;28;20061;-79
2022/01/28 01:23:04;;;;;;;9.88;5.45;;;-6.60;96.90;;;;;;5036547;28;20091;-80
2022/01/28 01:25:33;;;;;;;7.00;4.18;;;-6.60;96.90;;;;;;5028777;28;20025;-79
2022/01/28 01:27:59;;;;;;;9.70;5.25;;;-6.60;97.10;;;;;;5014364;28;20026;-81
2022/01/28 01:30:28;;;;;;;10.90;6.20;;;-6.60;97.40;;;;;;4996955;28;20046;-81
2022/01/28 01:32:54;;;;;;;10.63;5.43;;;-6.50;97.50;;;;;;5014789;28;20050;-80
2022/01/28 01:35:19;;;;;;;10.02;5.38;;;-6.50;97.40;;;;;;5014418;28;20053;-81
2022/01/28 01:37:45;;;;;;;12.05;4.50;;;-6.50;97.40;;;;;;5018608;28;20492;-80
2022/01/28 01:40:13;;;;;;;10.23;5.57;;;-6.40;97.40;;;;;;5016236;28;20033;-78
2022/01/28 01:42:53;;;;;;;7.45;3.85;;;-6.50;97.20;;;;;;5015150;28;20022;-79
2022/01/28 01:53:30;;;;;;;12.70;6.47;;;-6.60;96.90;;;;;;5014537;28;20036;-81
2022/01/28 01:55:56;;;;;;;5.87;4.80;;;-6.60;96.80;;;;;;5022568;28;20045;-81
2022/01/28 01:58:29;;;;;;;5.53;3.00;;;-6.60;97.00;;;;;;5014125;28;20286;-82
2022/01/28 02:00:56;;;;;;;6.90;4.80;;;-6.60;97.00;;;;;;5013830;28;20457;-78
2022/01/28 02:03:22;;;;;;;7.70;5.80;;;-6.60;96.80;;;;;;5013915;28;20553;-81
2022/01/28 02:05:48;;;;;;;12.23;6.75;;;-6.60;97.00;;;;;;5013340;28;20267;-81
2022/01/28 02:08:14;;;;;;;9.65;5.63;;;-6.50;97.10;;;;;;5014657;28;20029;-79
2022/01/28 02:10:39;;;;;;;8.90;5.65;;;-6.50;97.30;;;;;;5012980;28;20025;-78
2022/01/28 02:13:05;;;;;;;9.95;6.13;;;-6.50;97.30;;;;;;5013104;28;20026;-79
2022/01/28 02:15:31;;;;;;;6.80;3.20;;;-6.50;97.30;;;;;;5013805;28;20025;-79
2022/01/28 02:18:00;;;;;;;7.78;4.78;;;-6.50;97.20;;;;;;5013507;28;20061;-79
2022/01/28 02:20:34;;;;;;;8.15;4.68;;;-6.50;97.00;;;;;;5013477;28;20057;-76
2022/01/28 02:23:00;;;;;;;10.95;6.55;;;-6.50;97.30;;;;;;4996155;28;20053;-80
2022/01/28 02:25:29;;;;;;;10.30;4.65;;;-6.50;97.00;;;;;;5013389;28;20068;-79
2022/01/28 02:27:59;;;;;;;8.50;5.57;;;-6.50;97.00;;;;;;5013346;28;20037;-77
2022/01/28 02:30:24;;;;;;;7.97;5.18;;;-6.50;96.60;;;;;;5013163;28;20129;-77
2022/01/28 02:32:56;;;;;;;9.15;4.95;;;-6.60;96.60;;;;;;5013329;28;20479;-80
2022/01/28 02:35:22;;;;;;;5.80;3.85;;;-6.60;96.70;;;;;;5012251;28;20379;-77
2022/01/28 02:37:48;;;;;;;6.53;3.33;;;-6.60;96.50;;;;;;5032480;28;20139;-79
2022/01/28 02:40:14;;;;;;;7.25;4.45;;;-6.70;96.60;;;;;;5018231;28;20399;-81
2022/01/28 02:42:56;;;;;;;6.72;4.07;;;-6.70;96.80;;;;;;5034898;28;20025;-79
2022/01/28 02:45:36;;;;;;;7.53;3.63;;;-6.70;96.70;;;;;;5036498;28;20617;-82
2022/01/28 02:48:06;;;;;;;8.55;5.97;;;-6.80;96.70;;;;;;5024257;28;20112;-85
2022/01/28 02:50:41;;;;;;;4.97;3.65;;;-6.70;96.70;;;;;;5044812;28;20025;-83
2022/01/28 02:53:09;;;;;;;12.95;5.13;;;-6.80;96.70;;;;;;5017809;28;20382;-81
2022/01/28 02:55:39;;;;;;;8.05;4.05;;;-6.80;96.80;;;;;;5034889;28;20017;-87
2022/01/28 02:58:21;;;;;;;10.27;7.35;;;-6.80;97.00;;;;;;5034215;28;20100;-83
2022/01/28 03:00:48;;;;;;;10.70;6.18;;;-6.70;97.30;;;;;;5015336;28;20395;-83
2022/01/28 03:03:23;;;;;;;12.20;6.38;;;-6.70;97.40;;;;;;5015240;28;20029;-79
2022/01/28 03:05:52;;;;;;;10.65;6.65;;;-6.60;97.50;;;;;;5034230;28;20026;-83
2022/01/28 03:08:19;;;;;;;14.15;6.18;;;-6.60;97.50;;;;;;5013292;28;20026;-83
2022/01/28 03:11:29;;;;;;;;;;;-6.50;97.60;;;;;;5014223;28;20478;-79
2022/01/28 03:16:35;;;;;;;6.25;4.47;;;-6.50;97.40;;;;;;5021227;28;20118;-85
2022/01/28 03:19:14;;;;;;;10.50;5.95;;;-6.40;97.40;;;;;;5019635;28;20014;-90
2022/01/28 03:21:43;;;;;;;9.43;5.82;;;-6.40;97.40;;;;;;5013028;28;20045;-83
2022/01/28 03:24:11;;;;;;;10.77;6.18;;;-6.40;97.50;;;;;;5011897;28;20064;-83
2022/01/28 03:26:38;;;;;;;10.63;5.43;;;-6.40;97.50;;;;;;5012425;28;20022;-81
2022/01/28 03:29:05;;;;;;;11.38;6.43;;;-6.30;97.50;;;;;;5012566;28;20042;-82
2022/01/28 03:31:31;;;;;;;7.15;4.35;;;-6.40;97.10;;;;;;4994843;28;20033;-79
2022/01/28 03:33:57;;;;;;;5.53;4.38;;;-6.40;97.00;;;;;;5012972;28;20037;-86
2022/01/28 03:36:24;;;;;;;10.68;5.82;;;-6.40;96.70;;;;;;5013760;28;20026;-86
2022/01/28 03:38:50;;;;;;;;;;;-6.50;96.80;;;;;;4996852;28;20113;-86
2022/01/28 03:41:17;;;;;;;9.65;6.22;;;-6.50;96.50;;;;;;5015280;28;19943;-82
2022/01/28 03:43:47;;;;;;;10.77;6.43;;;-6.60;96.40;;;;;;5026947;28;20080;-82
2022/01/28 03:46:14;;;;;;;11.20;5.78;;;-6.60;96.60;;;;;;5027239;28;20398;-84
2022/01/28 03:48:40;;;;;;;19.48;8.30;;;-6.60;96.70;;;;;;5017544;28;20098;-83
2022/01/28 03:51:07;;;;;;;12.77;7.30;;;-6.60;97.00;;;;;;5020752;28;20827;-84
2022/01/28 03:53:33;;;;;;;15.13;7.43;;;-6.60;97.70;;;;;;5013963;28;20383;-85
2022/01/28 03:55:59;;;;;;;15.30;7.93;;;-6.50;97.50;;;;;;5013306;28;20018;-84
2022/01/28 03:58:26;;;;;;;17.40;8.65;;;-6.40;97.60;;;;;;4996359;28;20076;-84
2022/01/28 04:00:53;;;;;;;14.93;6.00;;;-6.40;97.70;;;;;;5013527;28;20030;-85
2022/01/28 04:11:32;;;;;;;11.50;5.80;;;-6.30;97.60;;;;;;5030587;28;20068;-85
2022/01/28 04:14:09;;;;;;;14.55;9.52;;;-6.30;97.10;;;;;;5022926;28;20037;-81
2022/01/28 04:19:20;;;;;;;18.60;7.18;;;-6.40;97.10;;;;;;5012974;28;20506;-83
2022/01/28 04:21:46;;;;;;;12.57;8.90;;;-6.40;97.10;;;;;;5010015;28;20509;-85
2022/01/28 04:24:12;;;;;;;16.67;5.22;;;-6.40;97.10;;;;;;5035479;28;20029;-85
2022/01/28 04:26:38;;;;;;;14.88;10.18;;;-6.40;97.20;;;;;;5015720;28;20022;-83
2022/01/28 04:29:04;;;;;;;10.65;7.35;;;-6.40;97.20;;;;;;5017557;28;20045;-87
2022/01/28 04:31:31;;;;;;;15.23;8.50;;;-6.40;97.10;;;;;;5020001;28;20014;-93
2022/01/28 04:34:00;;;;;;;14.95;9.68;;;-6.40;97.40;;;;;;5006544;28;20026;-88
2022/01/28 04:36:29;;;;;;;9.50;6.35;;;-6.30;97.40;;;;;;5045747;28;20029;-90
2022/01/28 04:39:39;;;;;;;14.88;7.35;;;-6.30;97.30;;;;;;5042085;28;20033;-90
2022/01/28 04:44:35;;;;;;;12.02;4.97;;;-6.30;97.10;;;;;;5046261;28;20030;-89
2022/01/28 04:47:12;;;;;;;15.27;8.27;;;-6.40;97.00;;;;;;4998296;28;20038;-82
2022/01/28 04:50:29;;;;;;;10.18;6.18;;;-6.50;96.90;;;;;;4982174;28;20158;-85
2022/01/28 05:00:46;;;;;;;8.13;6.25;;;-6.40;97.30;;;;;;4996723;28;20038;-84
2022/01/28 05:27:09;;;;;;;18.45;10.07;;;-6.00;97.80;;;;;;4977893;28;20023;-81
2022/01/28 05:29:35;;;;;;;14.52;6.70;;;-6.00;97.80;;;;;;4961260;28;20424;-83
2022/01/28 05:32:02;;;;;;;14.40;8.80;;;-6.00;97.60;;;;;;4957650;28;20026;-82
2022/01/28 05:34:28;;;;;;;9.18;6.63;;;-6.00;97.60;;;;;;4974769;28;20563;-85
2022/01/28 05:36:55;;;;;;;8.63;5.95;;;-6.00;97.50;;;;;;4990721;28;20069;-84
2022/01/28 05:39:21;;;;;;;13.83;7.00;;;-6.00;97.30;;;;;;4998315;28;20068;-84
2022/01/28 05:41:47;;;;;;;13.00;8.60;;;-6.00;97.40;;;;;;4998017;28;20041;-83
2022/01/28 05:44:13;;;;;;;19.33;8.98;;;-6.00;97.60;;;;;;5014582;28;20481;-84
2022/01/28 05:46:39;;;;;;;13.48;8.65;;;-6.00;97.70;;;;;;4997205;28;20018;-83
2022/01/28 05:49:05;;;;;;;16.15;9.90;;;-5.90;97.70;;;;;;5013915;28;20503;-84
2022/01/28 05:51:31;;;;;;;14.65;9.80;;;-5.90;97.80;;;;;;5014258;28;20034;-82
2022/01/28 05:54:00;;;;;;;16.95;10.27;;;-5.90;97.80;;;;;;5015617;28;20033;-83
2022/01/28 05:56:27;;;;;;;10.38;6.40;;;-5.80;97.90;;;;;;4996928;28;20033;-83
2022/01/28 05:58:54;;;;;;;15.55;7.10;;;-5.80;98.00;;;;;;5016458;28;20160;-84
2022/01/28 06:01:20;;;;;;;12.57;9.20;;;-5.80;97.70;;;;;;5018142;28;20394;-83
2022/01/28 06:03:47;;;;;;;14.85;8.68;;;-5.80;97.70;;;;;;5015679;28;20029;-84
2022/01/28 06:06:19;;;;;;;11.52;7.45;;;-5.70;97.90;;;;;;5004879;28;20033;-82
2022/01/28 06:08:50;;;;;;;11.60;6.18;;;-5.70;97.60;;;;;;5020402;28;20033;-84
2022/01/28 06:11:16;;;;;;;17.35;8.98;;;-5.70;97.80;;;;;;5035076;28;20021;-83
2022/01/28 06:13:43;;;;;;;12.10;6.03;;;-5.70;97.70;;;;;;5034708;28;20026;-83
2022/01/28 06:16:12;;;;;;;13.52;8.20;;;-5.70;97.60;;;;;;5034336;28;20056;-83
2022/01/28 06:18:39;;;;;;;9.93;6.32;;;-5.70;97.90;;;;;;5012556;28;20053;-82
2022/01/28 06:21:05;;;;;;;16.30;8.70;;;-5.70;98.10;;;;;;4998101;28;20045;-83
2022/01/28 06:23:31;;;;;;;14.85;8.05;;;-5.60;98.40;;;;;;4996538;28;20476;-86
2022/01/28 06:25:57;;;;;;;24.80;7.68;;;-5.60;98.50;;;;;;5014675;28;20076;-82
2022/01/28 06:28:23;;;;;;;15.93;9.98;;;-5.50;98.60;;;;;;4996181;28;20026;-84
2022/01/28 06:30:49;;;;;;;17.13;7.88;;;-5.50;98.60;;;;;;4992712;28;20066;-83
2022/01/28 06:33:15;;;;;;;15.70;8.00;;;-5.40;98.70;;;;;;4994922;28;20026;-85
2022/01/28 06:35:42;;;;;;;15.25;9.60;;;-5.40;98.80;;;;;;4993271;28;20023;-82
2022/01/28 06:38:08;;;;;;;14.68;8.55;;;-5.40;98.50;;;;;;4994055;28;20022;-83
2022/01/28 06:40:34;;;;;;;11.07;6.32;;;-5.40;98.50;;;;;;4993594;28;20125;-82
2022/01/28 06:43:00;;;;;;;11.82;7.78;;;-5.30;98.60;;;;;;4994717;28;20108;-85
2022/01/28 06:45:26;;;;;;;16.77;7.28;;;-5.30;98.50;;;;;;4994364;28;20027;-83
2022/01/28 06:47:51;;;;;;;16.35;8.95;;;-5.30;98.50;;;;;;4992774;28;20054;-85
2022/01/28 06:50:17;;;;;;;17.83;8.88;;;-5.30;98.40;;;;;;4993414;28;20392;-84
2022/01/28 06:52:44;;;;;;;15.57;8.30;;;-5.40;98.30;;;;;;4994352;28;20037;-84
2022/01/28 06:55:11;;;;;;;10.93;6.70;;;-5.40;98.40;;;;;;4994976;28;20029;-84
2022/01/28 06:57:37;;;;;;;12.13;7.57;;;-5.30;98.50;;;;;;4995332;28;20101;-86
2022/01/28 07:00:06;;;;;;;12.57;8.55;;;-5.30;98.50;;;;;;4995031;28;20129;-85
2022/01/28 07:02:31;;;;;;;16.02;9.02;;;-5.30;98.50;;;;;;4995182;28;20022;-84
2022/01/28 07:04:58;;;;;;;9.73;5.32;;;-5.30;98.70;;;;;;4997942;28;20118;-85
2022/01/28 07:07:25;;;;;;;15.45;9.18;;;-5.20;98.50;;;;;;4995903;28;20101;-83
2022/01/28 07:09:52;;;;;;;12.15;8.85;;;-5.20;98.50;;;;;;4993633;28;20030;-82
2022/01/28 07:12:20;;;;;;;13.50;8.70;;;-5.20;98.70;;;;;;4992990;28;20391;-84
2022/01/28 07:14:46;;;;;;;19.15;10.00;;;-5.10;98.80;;;;;;4993448;28;20033;-84
2022/01/28 07:17:12;;;;;;;15.38;8.95;;;-5.00;99.10;;;;;;4996012;28;20018;-84
2022/01/28 07:19:38;;;;;;;14.70;10.10;;;-5.00;99.10;;;;;;5028745;28;20041;-83
2022/01/28 07:22:04;;;;;;;16.63;9.15;;;-4.90;99.20;;;;;;5028714;28;20125;-81
2022/01/28 07:24:30;;;;;;;16.92;9.75;;;-4.80;99.20;;;;;;5018019;28;20088;-86
2022/01/28 07:26:56;;;;;;;17.63;10.93;;;-4.70;99.20;;;;;;5030803;28;20506;-83
2022/01/28 07:29:27;;;;;;;15.55;9.35;;;-4.60;99.20;;;;;;5018953;28;20049;-83
2022/01/28 07:31:54;;;;;;;20.75;10.55;;;-4.60;98.90;;;;;;5031663;28;20092;-85
2022/01/28 07:34:19;;;;;;;16.60;11.10;;;-4.50;98.70;;;;;;5032921;28;20029;-84
2022/01/28 07:36:45;;;;;;;22.35;9.65;;;-4.50;98.70;;;;;;5032435;28;20025;-86
2022/01/28 07:39:11;;;;;;;18.77;10.52;;;-4.50;98.80;;;;;;5034756;28;20060;-83
2022/01/28 07:41:38;;;;;;;16.65;9.07;;;-4.40;98.70;;;;;;5036604;28;20443;-84
2022/01/28 07:44:19;;;;;;;16.10;10.20;;;-4.40;98.70;;;;;;5033192;28;20070;-84
2022/01/28 07:46:46;;;;;;;20.42;10.32;;;-4.30;98.70;;;;;;5032506;28;20128;-84
2022/01/28 07:49:12;;;;;;;19.30;11.15;;;-4.30;98.70;;;;;;5032219;28;20053;-84
2022/01/28 07:51:39;;;;;;;16.90;9.35;;;-4.30;98.80;;;;;;5031846;28;20505;-83
2022/01/28 07:54:05;;;;;;;18.60;12.10;;;-4.20;98.80;;;;;;5034286;28;20107;-83
2022/01/28 07:56:31;;;;;;;18.50;11.73;;;-4.20;98.70;;;;;;5033587;28;20089;-84
2022/01/28 07:58:57;;;;;;;18.83;10.43;;;-4.10;98.70;;;;;;5032954;28;20034;-84
2022/01/28 08:01:23;;;;;;;17.48;8.77;;;-4.10;98.60;;;;;;5032305;28;20498;-85
2022/01/28 08:03:48;;;;;;;20.45;11.75;;;-4.10;98.60;;;;;;5031192;28;20080;-83
2022/01/28 08:06:14;;;;;;;22.63;11.80;;;-4.10;98.60;;;;;;5035714;28;20032;-86
2022/01/28 08:08:40;;;;;;;17.63;11.30;;;-4.10;98.60;;;;;;5032676;28;20372;-83
2022/01/28 08:11:06;;;;;;;18.52;12.50;;;-4.10;98.40;;;;;;5016663;28;20478;-84
2022/01/28 08:13:31;;;;;;;21.10;11.38;;;-4.10;98.40;;;;;;4999685;28;20451;-85
2022/01/28 08:15:58;;;;;;;15.88;8.80;;;-4.00;98.50;;;;;;5017686;28;20072;-83
2022/01/28 08:18:23;;;;;;;23.35;11.60;;;-4.00;98.50;;;;;;5018138;28;20029;-83
2022/01/28 08:20:49;;;;;;;26.67;13.35;;;-4.00;98.40;;;;;;5016227;28;20428;-84
2022/01/28 08:23:16;;;;;;;19.60;11.15;;;-3.90;98.40;;;;;;5016294;28;20046;-82
2022/01/28 08:25:42;;;;;;;19.40;9.43;;;-3.90;98.40;;;;;;5016608;28;20030;-83
2022/01/28 08:28:08;;;;;;;14.02;9.27;;;-3.90;98.20;;;;;;5021669;28;20041;-83
2022/01/28 08:30:38;;;;;;;23.90;12.27;;;-3.90;97.90;;;;;;5005184;28;20049;-83
2022/01/28 08:33:05;;;;;;;19.60;12.85;;;-4.00;97.50;;;;;;5018713;28;20026;-84
2022/01/28 08:35:35;;;;;;;21.33;11.38;;;-4.00;97.70;;;;;;5016143;28;20032;-84
2022/01/28 08:38:02;;;;;;;23.23;13.43;;;-4.00;97.90;;;;;;4998258;28;20490;-84
2022/01/28 08:40:29;;;;;;;20.75;11.65;;;-3.90;98.10;;;;;;5015470;28;20037;-84
2022/01/28 08:42:55;;;;;;;19.40;12.57;;;-3.80;98.10;;;;;;5016107;28;20026;-85
2022/01/28 08:45:21;;;;;;;23.67;12.50;;;-3.70;98.00;;;;;;5016280;28;20493;-82
2022/01/28 08:47:48;;;;;;;24.95;11.85;;;-3.80;97.60;;;;;;4998682;28;20022;-84
2022/01/28 08:50:14;;;;;;;23.45;13.30;;;-3.80;97.70;;;;;;5015879;28;20106;-84
2022/01/28 08:52:40;;;;;;;21.30;14.50;;;-3.90;97.20;;;;;;5015908;28;20088;-82
2022/01/28 08:55:07;;;;;;;26.67;12.75;;;-3.90;97.50;;;;;;4998602;28;20026;-84
2022/01/28 08:57:33;;;;;;;22.00;13.82;;;-3.90;97.70;;;;;;5021623;28;20026;-83
2022/01/28 09:00:05;;;;;;;21.65;11.38;;;-3.90;97.60;;;;;;5023437;28;20042;-83
2022/01/28 09:02:31;;;;;;;23.50;13.35;;;-3.90;97.10;;;;;;5005826;28;20018;-82
2022/01/28 09:04:57;;;;;;;24.13;12.10;;;-4.00;97.30;;;;;;5020624;28;20052;-83
2022/01/28 09:07:22;;;;;;;24.30;11.88;;;-4.00;97.40;;;;;;5016575;28;20041;-86
2022/01/28 09:09:51;;;;;;;18.42;12.00;;;-4.00;97.00;;;;;;5007527;28;20026;-85
2022/01/28 09:14:52;;;;;;;21.92;13.27;;;-3.90;97.70;;;;;;5035125;28;20026;-85
2022/01/28 09:17:20;;;;;;;27.85;14.77;;;-3.80;97.80;;;;;;5016618;28;20497;-84
2022/01/28 09:19:46;;;;;;;24.80;13.95;;;-3.80;97.90;;;;;;5015189;28;20056;-85
2022/01/28 09:22:12;;;;;;;21.65;12.85;;;-3.70;98.00;;;;;;5014542;28;20399;-84
2022/01/28 09:24:38;;;;;;;26.27;15.18;;;-3.70;97.50;;;;;;5015840;28;20034;-83
2022/01/28 09:27:05;;;;;;;22.98;12.50;;;-3.80;97.50;;;;;;5014762;28;20029;-82
2022/01/28 09:29:31;;;;;;;19.10;9.77;;;-3.80;97.30;;;;;;5015041;28;20487;-84
2022/01/28 09:31:56;;;;;;;21.98;11.73;;;-3.80;97.10;;;;;;5014942;28;20070;-84
2022/01/28 09:34:22;;;;;;;29.15;15.25;;;-3.90;96.90;;;;;;4998680;28;20052;-82
2022/01/28 09:36:48;;;;;;;25.00;14.07;;;-3.90;97.10;;;;;;4999347;28;20021;-83
2022/01/28 09:39:14;;;;;;;26.05;14.00;;;-3.90;97.40;;;;;;4998398;28;20061;-85
2022/01/28 09:41:40;;;;;;;25.50;14.20;;;-3.90;97.60;;;;;;5015804;28;20026;-83
2022/01/28 09:44:09;;;;;;;28.48;14.20;;;-3.80;97.70;;;;;;5014999;28;20494;-84
2022/01/28 09:46:35;;;;;;;29.33;13.75;;;-3.70;97.90;;;;;;5015152;28;20032;-85
2022/01/28 09:49:02;;;;;;;25.42;13.73;;;-3.70;97.80;;;;;;5015029;28;20113;-84
2022/01/28 09:51:28;;;;;;;31.83;16.10;;;-3.60;97.50;;;;;;5014967;28;20029;-82
2022/01/28 09:53:54;;;;;;;26.83;14.18;;;-3.60;97.40;;;;;;4998402;28;20074;-84
2022/01/28 09:56:20;;;;;;;25.17;13.43;;;-3.60;97.40;;;;;;5015559;28;20030;-84
2022/01/28 09:58:46;;;;;;;28.02;14.35;;;-3.60;97.60;;;;;;4996762;28;20376;-82
2022/01/28 10:01:11;;;;;;;25.88;12.05;;;-3.50;97.80;;;;;;4996814;28;20045;-87
2022/01/28 10:03:38;;;;;;;27.25;15.77;;;-3.50;97.80;;;;;;4996358;28;20080;-83
2022/01/28 10:06:03;;;;;;;31.75;16.15;;;-3.50;97.70;;;;;;5014619;28;20057;-84
2022/01/28 10:08:29;;;;;;;31.58;16.15;;;-3.50;97.80;;;;;;5014888;28;20029;-83
2022/01/28 10:11:06;;;;;;;35.80;15.02;;;-3.40;97.90;;;;;;5018595;28;20022;-83
2022/01/28 10:13:44;;;;;;;36.38;16.73;;;-3.40;97.80;;;;;;5015089;28;20053;-83
2022/01/28 10:16:39;;;;;;;28.73;16.50;;;-3.30;97.70;;;;;;5018099;28;20501;-84
2022/01/28 10:19:10;;;;;;;23.65;13.93;;;-3.30;97.60;;;;;;4998866;28;20030;-83
2022/01/28 10:21:45;;;;;;;23.27;14.00;;;-3.40;97.60;;;;;;4996651;28;20057;-86
2022/01/28 10:24:24;;;;;;;25.15;14.35;;;-3.40;97.40;;;;;;5013963;28;20833;-85
2022/01/28 10:27:06;;;;;;;27.20;16.42;;;-3.60;97.40;;;;;;4996281;28;20045;-81
2022/01/28 10:29:34;;;;;;;27.63;16.63;;;-3.60;97.60;;;;;;5013568;28;20096;-84
2022/01/28 10:32:02;;;;;;;34.45;16.35;;;-3.60;97.60;;;;;;5014442;28;20456;-85
2022/01/28 10:34:32;;;;;;;29.48;16.83;;;-3.60;97.90;;;;;;5013959;28;20061;-85
2022/01/28 10:37:07;;;;;;;32.85;16.10;;;-3.50;97.70;;;;;;4996496;28;20110;-85
2022/01/28 10:39:42;;;;;;;27.65;16.75;;;-3.50;97.60;;;;;;5014348;28;20505;-83
2022/01/28 10:42:10;;;;;;;31.20;16.45;;;-3.40;97.50;;;;;;5014558;28;20037;-83
2022/01/28 10:44:55;;;;;;;32.15;15.57;;;-3.40;97.40;;;;;;4997355;28;20029;-86
2022/01/28 10:47:49;;;;;;;35.10;16.42;;;-3.40;97.50;;;;;;5015720;28;20037;-83
2022/01/28 10:50:19;;;;;;;35.30;16.08;;;-3.50;97.40;;;;;;5015694;28;20423;-86
2022/01/28 10:52:48;;;;;;;35.85;19.30;;;-3.60;97.60;;;;;;5019826;28;20082;-85
2022/01/28 10:55:18;;;;;;;32.28;18.63;;;-3.60;97.70;;;;;;4999256;28;20391;-85
2022/01/28 10:58:03;;;;;;;30.05;18.88;;;-3.70;97.60;;;;;;5013411;28;20022;-85
2022/01/28 11:00:32;;;;;;;39.80;17.25;;;-3.70;97.80;;;;;;5013021;28;20491;-85
2022/01/28 11:03:00;;;;;;;35.78;20.95;;;-3.70;97.90;;;;;;4996146;28;20041;-85
2022/01/28 11:05:27;;;;;;;;;;;-3.70;98.10;;;;;;4996584;28;20033;-84
2022/01/28 11:07:53;;;;;;;32.65;16.63;;;-3.60;98.30;;;;;;5013371;28;19909;-84
2022/01/28 11:10:19;;;;;;;35.53;18.10;;;-3.50;98.40;;;;;;5013978;28;20487;-83
2022/01/28 11:12:45;;;;;;;39.15;21.58;;;-3.40;98.30;;;;;;5013652;28;20033;-84
2022/01/28 11:15:12;;;;;;;41.88;19.42;;;-3.40;98.20;;;;;;5013265;28;20026;-84
2022/01/28 11:17:40;;;;;;;42.15;22.35;;;-3.30;98.10;;;;;;5014061;28;20026;-83
2022/01/28 11:20:07;;;;;;;;;;;-3.30;98.00;;;;;;5015408;28;20044;-85
2022/01/28 11:22:44;;;;;;;41.72;21.50;;;-3.30;97.90;;;;;;5015742;28;19923;-84
2022/01/28 11:25:35;;;;;;;41.63;20.02;;;-3.40;97.90;;;;;;5015963;28;20029;-82
2022/01/28 11:28:07;;;;;;;39.50;19.15;;;-3.40;98.10;;;;;;5014161;28;20029;-83
2022/01/28 11:30:34;;;;;;;36.60;20.23;;;-3.50;98.20;;;;;;5013124;28;20057;-83
2022/01/28 11:33:06;;;;;;;44.50;19.43;;;-3.50;98.20;;;;;;4995616;28;20030;-83
2022/01/28 11:35:39;;;;;;;34.28;19.17;;;-3.50;98.20;;;;;;5013286;28;20392;-83
2022/01/28 11:38:27;;;;;;;38.30;20.83;;;-3.50;98.20;;;;;;4995382;28;20021;-82
2022/01/28 11:40:52;;;;;;;41.47;22.40;;;-3.60;98.30;;;;;;5013698;28;20080;-85
2022/01/28 11:43:29;;;;;;;38.28;22.73;;;-3.60;98.30;;;;;;5014302;28;20026;-84
2022/01/28 11:46:20;;;;;;;36.35;19.15;;;-3.60;98.30;;;;;;5012074;28;20024;-85
2022/01/28 11:48:55;;;;;;;39.60;24.92;;;-3.60;98.40;;;;;;5014456;28;20029;-83
2022/01/28 11:51:33;;;;;;;37.10;22.70;;;-3.60;98.20;;;;;;5018584;28;20509;-83
2022/01/28 11:54:02;;;;;;;44.50;22.98;;;-3.60;98.10;;;;;;5016543;28;20395;-82
2022/01/28 11:56:29;;;;;;;46.35;23.60;;;-3.60;98.00;;;;;;5013468;28;20030;-82
2022/01/28 11:58:59;;;;;;;42.38;23.80;;;-3.60;98.10;;;;;;5013162;28;20033;-83
2022/01/28 12:01:45;;;;;;;41.47;21.10;;;-3.60;98.00;;;;;;5012425;28;20042;-85
2022/01/28 12:04:27;;;;;;;48.75;21.10;;;-3.60;98.10;;;;;;4998983;28;20088;-85
2022/01/28 12:07:00;;;;;;;43.95;20.15;;;-3.70;98.00;;;;;;5012813;28;20065;-85
2022/01/28 12:09:27;;;;;;;43.08;21.10;;;-3.70;98.10;;;;;;5017697;28;20030;-84
2022/01/28 12:11:53;;;;;;;41.88;22.10;;;-3.70;98.20;;;;;;5019541;28;20033;-85
2022/01/28 12:14:53;;;;;;;42.22;20.45;;;-3.70;98.10;;;;;;5013448;28;20045;-83
2022/01/28 12:17:31;;;;;;;50.92;22.52;;;-3.80;98.10;;;;;;5011815;28;20018;-82
2022/01/28 12:20:24;;;;;;;41.55;22.05;;;-3.80;98.30;;;;;;5012555;28;20399;-84
2022/01/28 12:23:11;;;;;;;42.30;24.77;;;-3.80;98.40;;;;;;5012976;28;20136;-84
2022/01/28 12:25:36;;;;;;;45.80;24.80;;;-3.80;98.40;;;;;;5012760;28;20030;-84
2022/01/28 12:28:40;;;;;;;45.20;26.73;;;-3.90;98.40;;;;;;5012379;28;20110;-82
2022/01/28 12:31:12;;;;;;;50.78;25.15;;;-3.90;98.60;;;;;;5012131;28;20454;-85
2022/01/28 12:33:41;;;;;;;41.95;21.15;;;-3.90;98.70;;;;;;5012952;28;20114;-84
2022/01/28 12:36:15;;;;;;;53.22;22.23;;;-3.90;98.70;;;;;;5013073;28;20085;-83
2022/01/28 12:38:55;;;;;;;49.40;26.02;;;-3.90;98.80;;;;;;5013686;28;20025;-83
2022/01/28 12:41:23;;;;;;;52.03;25.35;;;-3.90;98.90;;;;;;5013613;28;20033;-84
2022/01/28 12:43:49;;;;;;;46.85;24.10;;;-3.90;98.90;;;;;;5013705;28;20427;-83
2022/01/28 12:46:16;;;;;;;47.57;22.47;;;-3.90;98.90;;;;;;4997995;28;20423;-84
2022/01/28 12:48:47;;;;;;;46.38;24.15;;;-3.80;98.90;;;;;;5015646;28;20399;-82
2022/01/28 12:51:13;;;;;;;47.70;21.92;;;-3.80;99.00;;;;;;5012697;28;20030;-85
2022/01/28 12:53:45;;;;;;;40.63;21.35;;;-3.80;99.00;;;;;;5012908;28;20024;-84
2022/01/28 12:56:13;;;;;;;47.60;26.00;;;-3.80;98.90;;;;;;5012942;28;20022;-85
2022/01/28 12:58:45;;;;;;;;;;;-3.80;98.90;;;;;;5016535;28;20025;-85
2022/01/28 13:01:13;;;;;;;53.65;25.73;;;-3.70;98.80;;;;;;5017920;28;19920;-85
2022/01/28 13:03:48;;;;;;;52.65;25.00;;;-3.70;98.70;;;;;;5000703;28;20022;-84
2022/01/28 13:09:01;;;;;;;51.65;24.88;;;-3.80;98.60;;;;;;5024164;28;20026;-83
2022/01/28 13:11:28;;;;;;;49.78;25.77;;;-3.80;98.70;;;;;;5014182;28;20026;-82
2022/01/28 13:13:56;;;;;;;48.73;25.50;;;-3.80;98.60;;;;;;5024117;28;20022;-84
2022/01/28 13:16:33;;;;;;;51.75;25.25;;;-3.80;98.60;;;;;;5020487;28;20030;-83
2022/01/28 13:19:00;;;;;;;48.35;27.33;;;-3.80;98.60;;;;;;5018828;28;20037;-83
2022/01/28 13:21:27;;;;;;;59.05;27.38;;;-3.80;98.60;;;;;;5017452;28;20068;-84
2022/01/28 13:24:13;;;;;;;62.72;30.65;;;-3.80;98.60;;;;;;5015175;28;20101;-83
2022/01/28 13:27:05;;;;;;;48.03;27.37;;;-3.80;98.50;;;;;;5015891;28;20121;-83
2022/01/28 13:29:36;;;;;;;54.50;24.52;;;-3.80;98.50;;;;;;5018561;28;20046;-82
2022/01/28 13:32:06;;;;;;;59.60;28.77;;;-3.70;98.50;;;;;;5025070;28;20033;-83
2022/01/28 13:34:52;;;;;;;50.25;25.55;;;-3.80;98.40;;;;;;5025150;28;20418;-82
2022/01/28 13:37:38;;;;;;;50.38;26.42;;;-3.70;98.30;;;;;;5020149;28;20022;-81
2022/01/28 13:40:10;;;;;;;54.30;25.10;;;-3.70;98.30;;;;;;5016972;28;20026;-84
2022/01/28 13:42:37;;;;;;;45.92;25.10;;;-3.80;98.30;;;;;;5016030;28;20105;-82
2022/01/28 13:45:06;;;;;;;51.80;28.50;;;-3.80;98.40;;;;;;5014873;28;20480;-86
2022/01/28 13:47:53;;;;;;;54.63;28.40;;;-3.90;98.50;;;;;;5015011;28;20022;-83
2022/01/28 13:50:28;;;;;;;43.63;23.40;;;-3.90;98.50;;;;;;5014744;28;20063;-83
2022/01/28 13:53:23;;;;;;;58.00;26.83;;;-4.00;98.30;;;;;;5014578;28;20105;-82
2022/01/28 13:56:05;;;;;;;50.40;24.50;;;-4.00;98.40;;;;;;4997246;28;20037;-83
2022/01/28 13:58:44;;;;;;;57.25;26.17;;;-4.10;98.50;;;;;;5015760;28;20028;-83
2022/01/28 14:01:11;;;;;;;35.25;21.65;;;-4.10;98.70;;;;;;5001885;28;20084;-83
2022/01/28 14:03:51;;;;;;;52.28;28.80;;;-4.10;98.80;;;;;;5014196;28;20030;-83
2022/01/28 14:06:20;;;;;;;49.90;25.45;;;-4.10;98.90;;;;;;5014061;28;20034;-85
2022/01/28 14:08:52;;;;;;;54.05;27.08;;;-4.20;98.90;;;;;;5013866;28;20092;-84
2022/01/28 14:11:34;;;;;;;54.92;27.48;;;-4.20;99.00;;;;;;5018908;28;20026;-83
2022/01/28 14:17:02;;;;;;;54.58;26.83;;;-4.20;99.10;;;;;;5034881;28;20105;-83
2022/01/28 14:19:30;;;;;;;48.05;25.05;;;-4.20;99.00;;;;;;5017067;28;20026;-83
2022/01/28 14:21:57;;;;;;;45.33;20.70;;;-4.20;99.00;;;;;;5034835;28;20029;-83